Time;durP1;ratioP1;P1;durP2;ratioP2;P2;SDS_P1;SDS_P2;PMS_P1;PMS_P2;Temp;Humidity;BMP_temperature;BMP_pressure;BME280_temperature;BME280_humidity;BME280_pressure;Samples;Min_cycle;Max_cycle;Signal;HPM_P1;HPM_P2
2022/02/12 00:02:27;;;;;;;11.30;6.00;;;;;;;1.39;83.18;100894.73;107621;1271;94761;-71
2022/02/12 00:04:59;;;;;;;12.70;6.10;;;;;;;1.39;83.26;100906.05;107836;1270;94505;-72
2022/02/12 00:07:31;;;;;;;11.60;5.90;;;;;;;1.41;83.31;100906.08;107730;1270;138591;-72
2022/02/12 00:10:03;;;;;;;9.90;5.20;;;;;;;1.44;83.33;100920.71;107815;1270;109763;-72
2022/02/12 00:12:35;;;;;;;10.10;5.70;;;;;;;1.46;83.17;100929.14;107694;1270;137983;-72
2022/02/12 00:15:09;;;;;;;12.30;6.30;;;;;;;1.47;83.25;100929.15;107242;1271;96537;-70
2022/02/12 00:17:42;;;;;;;11.90;6.20;;;;;;;1.49;83.32;100933.63;106968;1270;96594;-71
2022/02/12 00:20:16;;;;;;;9.60;6.20;;;;;;;1.50;83.26;100945.14;107114;1270;137866;-72
2022/02/12 00:22:47;;;;;;;9.40;5.50;;;;;;;1.47;83.01;100948.02;107813;1269;107957;-70
2022/02/12 00:25:19;;;;;;;10.00;5.30;;;;;;;1.42;82.91;100960.41;106814;1270;138620;-71
2022/02/12 00:27:51;;;;;;;5.70;4.20;;;;;;;1.36;82.61;100957.92;107593;1270;96261;-70
2022/02/12 00:30:23;;;;;;;8.30;4.70;;;;;;;1.28;82.12;100965.52;107712;1270;137872;-71
2022/02/12 00:32:55;;;;;;;6.90;3.90;;;;;;;1.25;82.23;100974.87;107401;1270;109198;-72
2022/02/12 00:35:28;;;;;;;7.60;3.50;;;;;;;1.23;82.13;100983.39;107866;1270;108965;-71
2022/02/12 00:38:00;;;;;;;6.60;3.60;;;;;;;1.20;81.62;100990.02;106479;1270;137966;-71
2022/02/12 00:40:31;;;;;;;6.00;3.30;;;;;;;1.17;81.25;100994.94;107328;1270;96357;-72
2022/02/12 00:43:03;;;;;;;6.20;3.40;;;;;;;1.13;81.16;101004.98;107695;1271;137792;-70
2022/02/12 00:45:35;;;;;;;7.70;3.20;;;;;;;1.08;81.13;101010.55;107817;1270;111385;-71
2022/02/12 00:48:09;;;;;;;5.90;3.30;;;;;;;1.06;81.34;101012.36;107699;1270;137861;-71
2022/02/12 00:50:42;;;;;;;6.30;3.30;;;;;;;1.03;81.28;101012.33;106411;1270;108995;-71
2022/02/12 00:53:14;;;;;;;5.60;3.00;;;;;;;1.01;81.40;101016.73;106187;1268;96494;-71
2022/02/12 00:55:46;;;;;;;7.40;3.60;;;;;;;0.97;81.25;101023.52;107325;1270;139105;-71
2022/02/12 00:58:18;;;;;;;4.80;2.90;;;;;;;0.92;81.35;101027.89;107276;1270;111411;-71
2022/02/12 01:00:50;;;;;;;5.30;2.70;;;;;;;0.89;81.51;101031.77;106108;1270;137923;-71
2022/02/12 01:03:22;;;;;;;3.90;3.00;;;;;;;0.85;81.50;101038.00;106100;1270;108180;-70
2022/02/12 01:05:55;;;;;;;6.10;3.10;;;;;;;0.84;81.70;101047.57;106083;1270;138440;-70
2022/02/12 01:08:27;;;;;;;6.20;3.20;;;;;;;0.82;81.62;101050.10;106244;1270;96468;-71
2022/02/12 01:10:58;;;;;;;5.70;3.10;;;;;;;0.80;81.81;101058.79;106253;1270;112247;-70
2022/02/12 01:13:31;;;;;;;5.50;2.90;;;;;;;0.80;81.86;101065.12;106145;1270;137821;-70
2022/02/12 01:16:03;;;;;;;6.10;3.30;;;;;;;0.78;81.91;101064.91;106169;1270;108925;-70
2022/02/12 01:18:35;;;;;;;4.70;3.00;;;;;;;0.75;81.85;101068.29;107696;1269;137961;-70
2022/02/12 01:21:07;;;;;;;4.00;2.70;;;;;;;0.75;81.71;101077.52;107864;1270;94664;-71
2022/02/12 01:23:39;;;;;;;6.50;2.60;;;;;;;0.73;81.79;101080.23;107821;1270;110237;-70
2022/02/12 01:26:11;;;;;;;3.90;2.40;;;;;;;0.73;81.71;101082.45;107745;1270;137737;-70
2022/02/12 01:28:44;;;;;;;6.40;2.20;;;;;;;0.75;81.56;101087.10;106420;1270;108948;-70
2022/02/12 01:31:16;;;;;;;3.70;2.20;;;;;;;0.74;81.33;101095.14;106135;1270;137581;-69
2022/02/12 01:33:48;;;;;;;5.80;2.40;;;;;;;0.72;81.27;101099.19;106254;1270;96681;-69
2022/02/12 01:36:20;;;;;;;3.90;2.70;;;;;;;0.69;81.09;101106.64;106136;1270;137292;-70
2022/02/12 01:38:52;;;;;;;6.70;2.60;;;;;;;0.65;81.15;101115.97;106205;1270;108805;-70
2022/02/12 01:41:26;;;;;;;4.90;2.30;;;;;;;0.62;80.99;101122.58;106216;1270;109132;-69
2022/02/12 01:44:05;;;;;;;5.20;2.40;;;;;;;0.59;81.20;101122.04;106024;1271;138707;-69
2022/02/12 01:46:38;;;;;;;5.70;2.10;;;;;;;0.60;81.06;101127.35;106236;1270;96569;-70
2022/02/12 01:49:10;;;;;;;4.90;2.30;;;;;;;0.57;80.88;101133.63;106140;1270;138177;-70
2022/02/12 01:51:42;;;;;;;5.10;2.20;;;;;;;0.58;80.91;101137.06;106221;1270;108215;-70
2022/02/12 01:54:14;;;;;;;3.50;2.20;;;;;;;0.60;81.06;101141.73;106104;1270;137385;-70
2022/02/12 01:56:48;;;;;;;8.10;2.50;;;;;;;0.60;81.01;101146.17;106278;1270;96630;-70
2022/02/12 01:59:21;;;;;;;4.70;2.50;;;;;;;0.57;80.78;101157.25;106217;1270;96367;-69
2022/02/12 02:01:54;;;;;;;4.20;2.40;;;;;;;0.56;80.90;101163.37;106085;1270;137211;-69
2022/02/12 02:04:27;;;;;;;4.50;2.40;;;;;;;0.53;80.75;101166.18;106233;1270;106711;-70
2022/02/12 02:06:59;;;;;;;4.80;2.30;;;;;;;0.50;80.43;101167.84;107651;1270;137934;-70
2022/02/12 02:09:32;;;;;;;4.90;2.20;;;;;;;0.47;80.16;101176.66;107795;1270;94633;-69
2022/02/12 02:12:05;;;;;;;6.00;1.90;;;;;;;0.47;80.44;101183.50;106164;1270;139006;-69
2022/02/12 02:14:39;;;;;;;4.80;2.20;;;;;;;0.48;80.33;101180.63;106921;1270;110997;-69
2022/02/12 02:17:11;;;;;;;3.70;2.20;;;;;;;0.50;80.48;101188.71;106170;1271;109071;-68
2022/02/12 02:19:44;;;;;;;4.10;2.10;;;;;;;0.51;80.20;101190.77;106116;1270;138555;-69
2022/02/12 02:22:17;;;;;;;6.10;2.50;;;;;;;0.49;80.13;101203.90;106214;1270;96536;-70
2022/02/12 02:24:49;;;;;;;8.80;3.10;;;;;;;0.47;80.23;101207.48;106152;1270;136970;-69
2022/02/12 02:27:22;;;;;;;6.00;2.70;;;;;;;0.46;80.04;101209.48;106241;1270;110436;-70
2022/02/12 02:29:54;;;;;;;4.80;2.70;;;;;;;0.42;80.03;101217.44;106120;1270;137370;-69
2022/02/12 02:32:26;;;;;;;4.40;2.90;;;;;;;0.37;80.06;101222.45;106276;1271;109064;-69
2022/02/12 02:34:57;;;;;;;6.20;2.30;;;;;;;0.36;80.00;101223.45;106088;1270;150079;-69
2022/02/12 02:37:30;;;;;;;8.00;2.70;;;;;;;0.36;79.91;101230.09;106183;1270;138010;-69
2022/02/12 02:40:02;;;;;;;6.30;2.40;;;;;;;0.35;79.64;101234.20;106258;1270;110660;-69
2022/02/12 02:42:34;;;;;;;4.60;2.00;;;;;;;0.35;79.68;101245.33;106137;1270;138439;-69
2022/02/12 02:45:10;;;;;;;6.30;2.40;;;;;;;0.37;79.68;101260.26;106161;1269;106405;-69
2022/02/12 02:47:43;;;;;;;3.50;2.50;;;;;;;0.36;79.63;101262.95;107838;1270;95909;-69
2022/02/12 02:56:02;;;;;;;7.10;2.60;;;;;;;0.26;79.58;101286.65;107731;1270;137347;-70
2022/02/12 02:58:37;;;;;;;6.10;2.60;;;;;;;0.20;79.78;101288.20;107814;1270;108820;-69
2022/02/12 03:01:11;;;;;;;8.10;2.80;;;;;;;0.17;79.79;101297.50;107679;1270;137873;-70
2022/02/12 03:03:45;;;;;;;6.50;2.70;;;;;;;0.11;79.82;101297.02;107735;1272;94646;-69
2022/02/12 03:06:18;;;;;;;5.60;2.50;;;;;;;0.08;79.88;101299.15;107567;1273;138267;-70
2022/02/12 03:08:50;;;;;;;6.40;2.60;;;;;;;0.06;79.96;101309.89;107692;1273;108783;-70
2022/02/12 03:11:23;;;;;;;5.80;2.50;;;;;;;0.04;80.08;101316.84;107679;1273;105635;-70
2022/02/12 03:13:56;;;;;;;3.80;2.50;;;;;;;0.03;80.23;101320.73;107597;1273;137709;-68
2022/02/12 03:16:28;;;;;;;4.70;2.70;;;;;;;0.02;80.38;101332.51;107063;1272;96511;-70
2022/02/12 03:19:00;;;;;;;6.60;2.70;;;;;;;-0.02;80.26;101330.67;106088;1273;137171;-70
2022/02/12 03:21:32;;;;;;;7.60;3.30;;;;;;;-0.08;80.37;101341.29;106099;1273;108556;-68
2022/02/12 03:24:04;;;;;;;5.40;3.20;;;;;;;-0.12;80.58;101347.86;106060;1273;137902;-70
2022/02/12 03:26:36;;;;;;;7.90;3.10;;;;;;;-0.18;80.48;101350.73;107695;1272;94907;-68
2022/02/12 03:29:08;;;;;;;7.50;2.90;;;;;;;-0.24;80.57;101352.29;106332;1273;96439;-69
2022/02/12 03:31:40;;;;;;;4.70;2.90;;;;;;;-0.28;80.58;101361.06;106033;1272;137969;-69
2022/02/12 03:34:13;;;;;;;7.20;3.40;;;;;;;-0.31;80.87;101369.52;106138;1273;109079;-70
2022/02/12 03:36:45;;;;;;;6.60;2.90;;;;;;;-0.35;80.69;101378.78;105969;1273;139416;-70
2022/02/12 03:39:17;;;;;;;10.10;3.30;;;;;;;-0.40;81.14;101378.45;107724;1273;94458;-69
2022/02/12 03:41:49;;;;;;;7.70;3.40;;;;;;;-0.44;81.18;101376.48;107673;1273;94495;-69
2022/02/12 03:44:21;;;;;;;6.70;3.30;;;;;;;-0.47;81.31;101384.40;107548;1273;138920;-70
2022/02/12 03:46:53;;;;;;;5.70;3.30;;;;;;;-0.52;81.13;101392.46;107744;1271;108923;-70
2022/02/12 03:49:25;;;;;;;6.50;3.40;;;;;;;-0.55;81.18;101397.97;107600;1273;138177;-69
2022/02/12 03:51:57;;;;;;;8.80;3.60;;;;;;;-0.58;81.17;101404.02;107604;1273;96036;-70
2022/02/12 03:54:29;;;;;;;5.80;3.10;;;;;;;-0.62;81.17;101404.10;107593;1273;138116;-70
2022/02/12 03:57:01;;;;;;;10.00;3.80;;;;;;;-0.66;81.56;101405.17;107706;1272;109471;-69
2022/02/12 03:59:33;;;;;;;7.90;3.20;;;;;;;-0.69;81.48;101401.67;107710;1272;107829;-70
2022/02/12 04:02:06;;;;;;;8.30;3.30;;;;;;;-0.72;81.51;101405.65;107409;1270;139206;-69
2022/02/12 04:04:38;;;;;;;8.00;3.40;;;;;;;-0.74;81.58;101412.22;106754;1270;96504;-69
2022/02/12 04:07:11;;;;;;;5.90;3.20;;;;;;;-0.77;81.58;101412.31;106167;1270;138010;-70
2022/02/12 04:09:44;;;;;;;7.20;3.20;;;;;;;-0.79;81.50;101418.41;106296;1270;110448;-69
2022/02/12 04:12:16;;;;;;;7.80;3.10;;;;;;;-0.81;81.59;101419.37;106127;1270;138283;-70
2022/02/12 04:14:48;;;;;;;8.00;2.90;;;;;;;-0.83;81.87;101425.11;106322;1270;108472;-69
2022/02/12 04:17:20;;;;;;;6.90;2.80;;;;;;;-0.85;81.73;101433.92;107831;1270;95016;-70
2022/02/12 04:19:52;;;;;;;4.90;2.90;;;;;;;-0.86;81.61;101435.08;106239;1270;138837;-69
2022/02/12 04:22:24;;;;;;;4.50;2.70;;;;;;;-0.90;81.65;101441.43;106254;1270;110609;-69
2022/02/12 04:24:56;;;;;;;6.30;2.80;;;;;;;-0.91;81.74;101445.67;106266;1270;138010;-68
2022/02/12 04:27:30;;;;;;;6.50;3.00;;;;;;;-0.92;81.74;101452.45;106316;1270;108368;-69
2022/02/12 04:30:02;;;;;;;5.40;2.70;;;;;;;-0.93;81.79;101456.35;106186;1270;138562;-68
2022/02/12 04:32:34;;;;;;;6.60;2.80;;;;;;;-0.94;81.74;101460.25;106287;1270;96564;-69
2022/02/12 04:35:09;;;;;;;8.70;2.70;;;;;;;-0.94;82.00;101463.85;106313;1270;110769;-69
2022/02/12 04:37:41;;;;;;;5.00;2.70;;;;;;;-0.92;81.89;101467.98;107760;1269;138448;-69
2022/02/12 04:40:15;;;;;;;5.60;2.60;;;;;;;-0.91;81.98;101475.35;107852;1270;108631;-70
2022/02/12 04:42:47;;;;;;;8.20;2.80;;;;;;;-0.91;81.62;101482.89;107681;1270;138550;-70
2022/02/12 04:45:19;;;;;;;5.20;2.20;;;;;;;-0.90;81.93;101486.67;107886;1270;94594;-71
2022/02/12 04:47:51;;;;;;;6.30;2.60;;;;;;;-0.92;81.86;101489.85;107764;1270;111098;-68
2022/02/12 04:50:23;;;;;;;6.30;2.90;;;;;;;-0.92;81.54;101493.77;107764;1270;137197;-70
2022/02/12 04:52:55;;;;;;;6.60;2.80;;;;;;;-0.94;81.83;101495.23;107837;1270;107342;-68
2022/02/12 04:55:27;;;;;;;5.90;2.40;;;;;;;-0.99;81.34;101493.89;107759;1270;138842;-69
2022/02/12 04:57:59;;;;;;;8.20;2.70;;;;;;;-1.04;81.45;101496.27;107848;1269;94770;-69
2022/02/12 05:00:31;;;;;;;6.30;2.60;;;;;;;-1.04;81.74;101500.21;107774;1270;138767;-69
2022/02/12 05:03:03;;;;;;;5.30;2.40;;;;;;;-1.05;81.68;101496.59;107785;1270;108178;-69
2022/02/12 05:05:35;;;;;;;9.50;2.90;;;;;;;-1.07;81.58;101497.16;107722;1270;107660;-69
2022/02/12 05:08:08;;;;;;;4.80;2.60;;;;;;;-1.09;81.66;101498.98;107740;1270;140079;-69
2022/02/12 05:10:40;;;;;;;6.90;2.50;;;;;;;-1.07;82.04;101492.92;107837;1270;94728;-69
2022/02/12 05:13:13;;;;;;;5.70;2.70;;;;;;;-1.06;81.57;101492.96;107725;1270;138489;-69
2022/02/12 05:15:45;;;;;;;7.00;2.50;;;;;;;-1.08;81.49;101498.82;107865;1270;109103;-69
2022/02/12 05:18:16;;;;;;;7.80;2.90;;;;;;;-1.09;81.93;101503.60;107678;1270;139959;-70
2022/02/12 05:20:48;;;;;;;7.10;2.50;;;;;;;-1.11;81.58;101508.28;107858;1269;94619;-69
2022/02/12 05:23:20;;;;;;;5.20;2.40;;;;;;;-1.12;81.62;101511.84;107847;1270;94909;-69
2022/02/12 05:25:52;;;;;;;9.10;2.50;;;;;;;-1.15;81.85;101516.54;107710;1270;138579;-69
2022/02/12 05:28:24;;;;;;;5.80;2.20;;;;;;;-1.15;81.62;101522.84;107864;1270;106905;-70
2022/02/12 05:30:56;;;;;;;5.40;2.60;;;;;;;-1.15;81.56;101527.61;107756;1269;137999;-69
2022/02/12 05:33:28;;;;;;;7.80;2.80;;;;;;;-1.16;81.88;101532.35;107793;1270;95144;-70
2022/02/12 05:36:00;;;;;;;7.90;2.90;;;;;;;-1.17;81.74;101536.77;107880;1269;94782;-70
2022/02/12 05:38:32;;;;;;;7.20;2.40;;;;;;;-1.17;81.59;101545.64;107751;1270;138023;-69
2022/02/12 05:41:04;;;;;;;9.10;3.30;;;;;;;-1.18;81.48;101550.21;107816;1269;107580;-69
2022/02/12 05:43:36;;;;;;;6.00;2.60;;;;;;;-1.19;81.68;101552.56;107728;1270;139246;-69
2022/02/12 05:46:11;;;;;;;8.20;2.60;;;;;;;-1.21;81.54;101552.84;106493;1270;96494;-68
2022/02/12 05:48:43;;;;;;;7.40;2.80;;;;;;;-1.21;81.53;101555.23;106176;1270;138135;-69
2022/02/12 05:51:18;;;;;;;9.20;3.00;;;;;;;-1.23;81.69;101556.86;106414;1270;110977;-69
2022/02/12 05:53:51;;;;;;;8.00;3.00;;;;;;;-1.27;81.48;101564.21;106304;1270;109289;-69
2022/02/12 05:56:23;;;;;;;10.40;3.60;;;;;;;-1.29;81.56;101569.27;106231;1270;137846;-70
2022/02/12 05:58:58;;;;;;;5.30;2.80;;;;;;;-1.29;81.64;101573.19;106355;1270;96474;-69
2022/02/12 06:01:30;;;;;;;7.50;2.70;;;;;;;-1.28;81.58;101576.81;106170;1270;138356;-70
2022/02/12 06:04:02;;;;;;;7.80;2.90;;;;;;;-1.24;81.73;101585.70;106389;1270;110729;-69
2022/02/12 06:06:35;;;;;;;7.70;2.90;;;;;;;-1.19;81.92;101593.17;106283;1270;137793;-71
2022/02/12 06:09:07;;;;;;;7.70;3.20;;;;;;;-1.15;81.82;101598.77;106328;1270;108861;-70
2022/02/12 06:11:38;;;;;;;10.80;3.10;;;;;;;-1.09;81.95;101599.48;106265;1270;96471;-70
2022/02/12 06:14:10;;;;;;;5.90;3.50;;;;;;;-1.04;81.79;101604.50;106234;1270;137603;-70
2022/02/12 06:16:43;;;;;;;6.80;3.00;;;;;;;-0.98;81.61;101606.23;106385;1270;109651;-70
2022/02/12 06:19:15;;;;;;;7.70;3.10;;;;;;;-0.91;81.76;101604.81;106226;1270;137718;-69
2022/02/12 06:21:47;;;;;;;9.60;3.20;;;;;;;-0.80;81.47;101602.45;106293;1270;108410;-70
2022/02/12 06:24:19;;;;;;;5.10;2.50;;;;;;;-0.68;81.50;101608.02;106119;1270;138893;-70
2022/02/12 06:26:56;;;;;;;5.70;2.70;;;;;;;-0.53;81.02;101602.71;106276;1270;97032;-69
2022/02/12 06:29:28;;;;;;;7.40;2.40;;;;;;;-0.34;80.96;101601.14;106310;1270;111422;-69
2022/02/12 06:32:02;;;;;;;7.80;2.80;;;;;;;-0.11;80.74;101600.20;106192;1270;137963;-70
2022/02/12 06:34:34;;;;;;;6.60;2.50;;;;;;;0.16;80.27;101603.81;106325;1270;108617;-70
2022/02/12 06:37:07;;;;;;;7.30;2.90;;;;;;;0.45;79.78;101602.14;106067;1271;137553;-69
2022/02/12 06:39:40;;;;;;;8.70;2.90;;;;;;;0.74;79.40;101602.16;106303;1270;96596;-69
2022/02/12 06:42:12;;;;;;;5.00;2.80;;;;;;;1.10;78.95;101607.99;106111;1270;137279;-69
2022/02/12 06:44:44;;;;;;;7.30;2.60;;;;;;;1.45;78.19;101609.30;106316;1270;108826;-69
2022/02/12 06:47:16;;;;;;;6.60;2.90;;;;;;;1.85;77.45;101613.08;106264;1270;109328;-69
2022/02/12 06:49:48;;;;;;;7.30;3.00;;;;;;;2.25;76.83;101608.23;106307;1270;137401;-69
2022/02/12 06:52:20;;;;;;;6.50;2.70;;;;;;;2.67;75.95;101601.80;106349;1270;96619;-69
2022/02/12 06:54:54;;;;;;;8.20;2.90;;;;;;;3.08;74.63;101605.23;106197;1270;137548;-70
2022/02/12 06:57:26;;;;;;;5.70;2.60;;;;;;;3.53;73.80;101606.95;106359;1269;109066;-70
2022/02/12 06:59:58;;;;;;;6.90;2.80;;;;;;;4.10;72.80;101614.13;106306;1270;109013;-70
2022/02/12 07:02:30;;;;;;;7.40;2.80;;;;;;;4.69;71.79;101618.98;106146;1270;137473;-70
2022/02/12 07:05:04;;;;;;;8.00;2.80;;;;;;;5.28;70.62;101624.21;106516;1270;96413;-69
2022/02/12 07:07:45;;;;;;;8.30;2.60;;;;;;;5.81;69.61;101631.67;107714;1270;137880;-71
2022/02/12 07:10:18;;;;;;;6.60;2.60;;;;;;;6.25;68.83;101630.87;107887;1269;108987;-72
2022/02/12 07:12:50;;;;;;;4.20;2.60;;;;;;;6.42;68.06;101623.04;107758;1269;137602;-69
2022/02/12 07:15:22;;;;;;;8.40;2.40;;;;;;;6.35;67.86;101634.91;107826;1270;94792;-70
2022/02/12 07:17:54;;;;;;;4.20;2.50;;;;;;;6.31;68.01;101646.64;107865;1269;94814;-72
2022/02/12 07:20:26;;;;;;;4.80;2.40;;;;;;;6.40;68.10;101649.29;107763;1270;136889;-71
2022/02/12 07:22:58;;;;;;;7.30;2.80;;;;;;;6.50;67.45;101657.14;107797;1270;108992;-71
2022/02/12 07:25:30;;;;;;;6.20;2.70;;;;;;;6.63;67.33;101654.81;107742;1270;138463;-70
2022/02/12 07:28:02;;;;;;;6.70;3.00;;;;;;;6.78;66.73;101660.60;107891;1269;94507;-72
2022/02/12 07:30:34;;;;;;;6.80;3.10;;;;;;;6.98;66.80;101668.33;107713;1269;137328;-70
2022/02/12 07:33:06;;;;;;;5.40;2.50;;;;;;;7.23;66.51;101669.31;107869;1270;111002;-71
2022/02/12 07:35:38;;;;;;;4.90;2.50;;;;;;;7.46;65.92;101676.32;107900;1269;110226;-71
2022/02/12 07:38:10;;;;;;;7.10;2.60;;;;;;;7.68;64.92;101672.94;107741;1270;137865;-70
2022/02/12 07:40:43;;;;;;;6.00;2.60;;;;;;;7.99;64.64;101676.09;107857;1270;95791;-70
2022/02/12 07:43:15;;;;;;;6.40;2.70;;;;;;;8.29;63.61;101682.71;107756;1269;137646;-72
2022/02/12 07:45:47;;;;;;;6.20;2.80;;;;;;;8.44;62.46;101685.86;107722;1270;111631;-71
2022/02/12 07:48:19;;;;;;;7.80;3.10;;;;;;;8.66;61.80;101697.98;106153;1270;139241;-70
2022/02/12 07:50:53;;;;;;;6.60;3.50;;;;;;;8.97;61.63;101697.75;106316;1269;108989;-71
2022/02/12 07:53:25;;;;;;;5.20;3.00;;;;;;;9.31;60.76;101698.85;106215;1270;96479;-69
2022/02/12 07:55:57;;;;;;;4.60;2.60;;;;;;;9.76;60.15;101706.28;106220;1270;137331;-70
2022/02/12 07:58:29;;;;;;;6.90;3.30;;;;;;;10.21;59.82;101704.28;106765;1270;110680;-69
2022/02/12 08:01:03;;;;;;;7.30;3.70;;;;;;;10.59;58.87;101704.67;107738;1270;137442;-71
2022/02/12 08:03:35;;;;;;;10.40;4.00;;;;;;;11.14;57.84;101705.51;107834;1270;107730;-70
2022/02/12 08:07:27;;;;;;;12.70;7.80;;;;;;;11.56;56.69;101705.69;107786;1269;94717;-71
2022/02/12 08:08:59;;;;;;;9.70;3.70;;;;;;;12.16;56.15;101705.58;107844;1270;95029;-72
2022/02/12 08:11:38;;;;;;;5.30;3.10;;;;;;;12.78;55.11;101704.34;107858;1270;110550;-70
2022/02/12 08:14:11;;;;;;;10.70;3.70;;;;;;;13.61;53.99;101702.73;107059;1271;137675;-70
2022/02/12 08:16:44;;;;;;;4.70;3.20;;;;;;;14.21;52.66;101705.56;106500;1270;107868;-72
2022/02/12 08:19:17;;;;;;;5.60;3.40;;;;;;;14.80;52.17;101707.10;107004;1271;138146;-71
2022/02/12 08:21:51;;;;;;;5.90;3.20;;;;;;;15.38;50.79;101705.85;107778;1270;94468;-70
2022/02/12 08:24:23;;;;;;;5.00;3.20;;;;;;;15.85;49.88;101708.15;106286;1271;110989;-69
2022/02/12 08:26:55;;;;;;;6.80;2.90;;;;;;;16.23;48.92;101711.33;106096;1270;137942;-70
2022/02/12 08:29:28;;;;;;;6.80;3.20;;;;;;;16.61;48.68;101708.14;106141;1271;109816;-70
2022/02/12 08:32:01;;;;;;;5.70;3.30;;;;;;;16.99;48.05;101714.04;106831;1270;137786;-71
2022/02/12 08:34:34;;;;;;;6.20;3.10;;;;;;;17.27;47.40;101717.08;107797;1270;94437;-70
2022/02/12 08:37:06;;;;;;;7.90;3.50;;;;;;;17.64;47.10;101728.71;107707;1270;137730;-71
2022/02/12 08:39:38;;;;;;;7.00;3.40;;;;;;;17.78;46.33;101736.48;107807;1270;108730;-72
2022/02/12 08:42:10;;;;;;;5.60;3.30;;;;;;;17.71;45.13;101738.14;107803;1270;109011;-70
2022/02/12 08:44:42;;;;;;;7.30;3.20;;;;;;;17.36;44.72;101749.26;107616;1270;137752;-73
2022/02/12 08:47:15;;;;;;;8.00;3.30;;;;;;;17.42;44.30;101753.29;107753;1270;94669;-72
2022/02/12 08:49:48;;;;;;;5.90;3.40;;;;;;;17.36;42.84;101749.81;107728;1270;137834;-70
2022/02/12 08:52:20;;;;;;;6.90;3.50;;;;;;;17.22;42.94;101747.65;107795;1270;108841;-72
2022/02/12 08:54:52;;;;;;;6.00;3.50;;;;;;;17.39;43.22;101749.15;107684;1270;138740;-72
2022/02/12 08:57:24;;;;;;;7.50;3.70;;;;;;;17.67;42.76;101749.34;107642;1271;94845;-72
2022/02/12 08:59:56;;;;;;;6.60;3.70;;;;;;;17.86;42.47;101751.80;107668;1270;94718;-72
2022/02/12 09:02:28;;;;;;;5.50;3.20;;;;;;;17.98;42.18;101753.63;107715;1270;138592;-71
2022/02/12 09:05:01;;;;;;;7.70;3.70;;;;;;;18.04;42.03;101754.80;107692;1270;106279;-70
2022/02/12 09:07:33;;;;;;;7.60;3.80;;;;;;;18.11;41.85;101759.98;106339;1271;137891;-70
2022/02/12 09:10:07;;;;;;;7.10;4.10;;;;;;;18.16;42.00;101767.54;107672;1270;96323;-70
2022/02/12 09:12:38;;;;;;;7.10;4.10;;;;;;;18.26;41.80;101773.27;107664;1270;137652;-70
2022/02/12 09:15:11;;;;;;;7.30;4.30;;;;;;;18.29;41.04;101771.60;107746;1271;111179;-71
2022/02/12 09:17:43;;;;;;;9.00;4.60;;;;;;;18.24;40.84;101776.90;107753;1271;108872;-71
2022/02/12 09:20:15;;;;;;;7.50;4.40;;;;;;;18.15;40.27;101775.51;107530;1270;139665;-70
2022/02/12 09:22:47;;;;;;;7.90;3.90;;;;;;;17.93;40.31;101777.58;107820;1270;95053;-71
2022/02/12 09:25:19;;;;;;;7.60;4.50;;;;;;;17.79;40.13;101774.95;107680;1270;138983;-71
2022/02/12 09:27:51;;;;;;;6.60;4.60;;;;;;;17.76;40.13;101782.64;107748;1270;111108;-71
2022/02/12 09:30:24;;;;;;;8.50;4.90;;;;;;;17.75;40.07;101794.61;107786;1271;107602;-71
2022/02/12 09:32:57;;;;;;;7.10;4.90;;;;;;;17.58;39.70;101792.61;107752;1270;138327;-71
2022/02/12 09:35:53;;;;;;;8.90;5.50;;;;;;;17.40;39.64;101797.27;107843;1270;94800;-71
2022/02/12 09:38:26;;;;;;;10.90;6.10;;;;;;;17.44;39.95;101794.88;107270;1270;137510;-71
2022/02/12 09:40:59;;;;;;;9.30;5.60;;;;;;;17.54;40.24;101796.08;107903;1270;110259;-70
2022/02/12 09:43:31;;;;;;;9.50;5.50;;;;;;;17.61;39.63;101796.52;107600;1271;139147;-70
2022/02/12 09:46:24;;;;;;;7.20;5.60;;;;;;;17.62;39.38;101797.04;107844;1270;107783;-71
2022/02/12 09:48:56;;;;;;;10.30;6.20;;;;;;;17.37;39.21;101805.13;107765;1269;138922;-70
2022/02/12 09:51:30;;;;;;;9.80;6.00;;;;;;;17.31;39.46;101814.14;107844;1270;95744;-70
2022/02/12 09:54:03;;;;;;;8.70;5.40;;;;;;;17.31;39.55;101828.73;107855;1270;110543;-71
2022/02/12 09:56:36;;;;;;;8.70;5.80;;;;;;;17.27;39.27;101832.73;107736;1270;137590;-71
2022/02/12 09:59:10;;;;;;;9.00;6.20;;;;;;;17.22;39.79;101830.81;107832;1270;108738;-70
2022/02/12 10:01:42;;;;;;;7.90;5.20;;;;;;;17.16;38.94;101824.86;107505;1270;137739;-70
2022/02/12 10:04:19;;;;;;;11.20;6.70;;;;;;;16.88;38.94;101827.91;107782;1271;94327;-71
2022/02/12 10:06:51;;;;;;;9.90;5.30;;;;;;;16.75;39.00;101829.06;106293;1270;138073;-72
2022/02/12 10:09:23;;;;;;;8.10;5.50;;;;;;;16.61;39.03;101834.39;107019;1270;108507;-70
2022/02/12 10:11:55;;;;;;;11.50;6.70;;;;;;;16.54;39.22;101836.74;107855;1270;108344;-70
2022/02/12 10:14:27;;;;;;;10.10;5.70;;;;;;;16.59;39.23;101837.07;106455;1270;138082;-72
2022/02/12 10:17:02;;;;;;;8.50;5.60;;;;;;;16.51;38.93;101832.78;106740;1270;96313;-70
2022/02/12 10:19:36;;;;;;;9.20;5.60;;;;;;;16.44;39.02;101831.23;107759;1269;139815;-69
2022/02/12 10:22:13;;;;;;;9.90;5.90;;;;;;;16.30;38.58;101833.45;107311;1269;107820;-70
2022/02/12 10:24:51;;;;;;;8.10;5.20;;;;;;;15.89;38.56;101832.75;107743;1270;138495;-70
2022/02/12 10:27:25;;;;;;;11.50;6.00;;;;;;;15.74;38.91;101831.77;107847;1270;94838;-70
2022/02/12 10:30:01;;;;;;;8.10;5.40;;;;;;;15.53;39.11;101836.54;107821;1269;94851;-69
2022/02/12 10:32:34;;;;;;;11.30;5.70;;;;;;;15.50;39.51;101839.08;107733;1270;138266;-70
2022/02/12 10:35:10;;;;;;;10.20;6.20;;;;;;;15.47;39.40;101835.30;107855;1270;109171;-69
2022/02/12 10:37:48;;;;;;;8.50;5.90;;;;;;;15.39;38.97;101843.02;107702;1269;138643;-69
2022/02/12 10:40:20;;;;;;;13.80;6.60;;;;;;;15.18;39.31;101839.55;107805;1271;94653;-72
2022/02/12 10:42:53;;;;;;;9.10;5.90;;;;;;;15.02;39.32;101835.59;107734;1271;138170;-69
2022/02/12 10:45:27;;;;;;;10.30;6.10;;;;;;;14.85;39.68;101832.16;107832;1269;111346;-70
2022/02/12 10:47:59;;;;;;;8.20;5.50;;;;;;;14.94;39.85;101833.19;107903;1270;108774;-69
2022/02/12 10:50:33;;;;;;;10.40;6.40;;;;;;;14.98;39.71;101830.26;107676;1271;137748;-70
2022/02/12 10:53:07;;;;;;;7.30;5.60;;;;;;;14.90;39.43;101828.89;107854;1271;95036;-69
2022/02/12 10:55:40;;;;;;;7.50;5.50;;;;;;;14.75;39.36;101828.73;107714;1271;138010;-69
2022/02/12 10:58:13;;;;;;;8.40;5.60;;;;;;;14.58;38.93;101826.34;107771;1271;111869;-69
2022/02/12 11:00:45;;;;;;;7.40;5.60;;;;;;;14.25;39.11;101824.63;107748;1271;137824;-70
2022/02/12 11:03:20;;;;;;;9.90;5.40;;;;;;;14.00;39.89;101820.61;107840;1270;109042;-68
2022/02/12 11:05:53;;;;;;;9.10;5.70;;;;;;;13.90;39.89;101815.58;107808;1271;94854;-70
2022/02/12 11:08:27;;;;;;;7.70;5.50;;;;;;;13.77;40.21;101810.07;107729;1271;138594;-70
2022/02/12 11:11:00;;;;;;;9.10;5.40;;;;;;;13.81;40.03;101810.70;107829;1271;110155;-70
2022/02/12 11:13:34;;;;;;;8.70;5.70;;;;;;;13.56;39.84;101805.61;107699;1271;138355;-71
2022/02/12 11:16:07;;;;;;;10.40;6.30;;;;;;;13.43;40.17;101810.75;107823;1271;107704;-70
2022/02/12 11:18:40;;;;;;;8.50;5.20;;;;;;;13.50;40.37;101816.56;107625;1271;139008;-68
2022/02/12 11:21:13;;;;;;;9.40;5.40;;;;;;;13.12;39.84;101817.41;106159;1270;96482;-69
2022/02/12 11:24:00;;;;;;;9.00;5.80;;;;;;;12.81;40.29;101816.20;107811;1270;110091;-69
2022/02/12 11:26:40;;;;;;;8.60;6.10;;;;;;;12.68;40.80;101815.86;107693;1271;137489;-70
2022/02/12 11:29:34;;;;;;;8.20;5.40;;;;;;;12.49;40.15;101811.80;107780;1270;107871;-69
2022/02/12 11:32:17;;;;;;;11.40;6.20;;;;;;;12.22;41.03;101817.62;107611;1271;138164;-70
2022/02/12 11:35:19;;;;;;;8.20;5.20;;;;;;;12.20;40.61;101818.14;107254;1271;95314;-69
2022/02/12 11:37:52;;;;;;;8.20;5.20;;;;;;;12.00;40.42;101812.84;107173;1271;137832;-70
2022/02/12 11:40:28;;;;;;;8.20;5.00;;;;;;;11.85;40.68;101819.67;107773;1271;108112;-71
2022/02/12 11:43:04;;;;;;;9.10;4.70;;;;;;;11.72;40.20;101816.66;107669;1270;137973;-70
2022/02/12 11:45:42;;;;;;;9.60;5.10;;;;;;;11.51;40.16;101820.02;106907;1271;97263;-69
2022/02/12 11:48:28;;;;;;;7.30;4.80;;;;;;;11.18;39.61;101826.63;107803;1270;94537;-70